sensor_id;sensor_type;location;lat;lon;timestamp;temperature;humidity
17887;DHT22;9069;52.044;7.472;2023-07-08T00:00:53;23.80;56.90
17887;DHT22;9069;52.044;7.472;2023-07-08T00:03:20;23.70;56.90
17887;DHT22;9069;52.044;7.472;2023-07-08T00:05:47;23.70;57.00
17887;DHT22;9069;52.044;7.472;2023-07-08T00:08:17;23.60;57.00
17887;DHT22;9069;52.044;7.472;2023-07-08T00:10:46;23.60;57.10
17887;DHT22;9069;52.044;7.472;2023-07-08T00:13:12;23.60;57.20
17887;DHT22;9069;52.044;7.472;2023-07-08T00:15:40;23.50;57.30
17887;DHT22;9069;52.044;7.472;2023-07-08T00:18:15;23.50;57.50
17887;DHT22;9069;52.044;7.472;2023-07-08T00:20:45;23.50;57.80
17887;DHT22;9069;52.044;7.472;2023-07-08T00:23:12;23.50;57.70
17887;DHT22;9069;52.044;7.472;2023-07-08T00:25:39;23.40;58.30
17887;DHT22;9069;52.044;7.472;2023-07-08T00:28:10;23.40;57.70
17887;DHT22;9069;52.044;7.472;2023-07-08T00:30:37;23.30;57.80
17887;DHT22;9069;52.044;7.472;2023-07-08T00:33:06;23.30;57.80
17887;DHT22;9069;52.044;7.472;2023-07-08T00:35:35;23.20;58.10
17887;DHT22;9069;52.044;7.472;2023-07-08T00:40:51;23.10;58.40
17887;DHT22;9069;52.044;7.472;2023-07-08T00:43:23;23.10;58.50
17887;DHT22;9069;52.044;7.472;2023-07-08T00:45:53;23.00;58.40
17887;DHT22;9069;52.044;7.472;2023-07-08T00:48:31;23.00;58.50
17887;DHT22;9069;52.044;7.472;2023-07-08T00:51:00;23.00;58.60
17887;DHT22;9069;52.044;7.472;2023-07-08T00:53:29;22.90;58.50
17887;DHT22;9069;52.044;7.472;2023-07-08T00:56:26;22.90;58.60
17887;DHT22;9069;52.044;7.472;2023-07-08T00:58:59;22.80;59.20
17887;DHT22;9069;52.044;7.472;2023-07-08T01:01:27;22.80;58.90
17887;DHT22;9069;52.044;7.472;2023-07-08T01:04:00;22.80;58.90
17887;DHT22;9069;52.044;7.472;2023-07-08T01:06:30;22.80;59.10
17887;DHT22;9069;52.044;7.472;2023-07-08T01:09:03;22.70;59.10
17887;DHT22;9069;52.044;7.472;2023-07-08T01:11:32;22.70;59.20
17887;DHT22;9069;52.044;7.472;2023-07-08T01:14:02;22.70;59.30
17887;DHT22;9069;52.044;7.472;2023-07-08T01:16:30;22.60;59.20
17887;DHT22;9069;52.044;7.472;2023-07-08T01:19:01;22.60;59.30
17887;DHT22;9069;52.044;7.472;2023-07-08T01:21:31;22.50;59.50
17887;DHT22;9069;52.044;7.472;2023-07-08T01:24:00;22.50;59.50
17887;DHT22;9069;52.044;7.472;2023-07-08T01:26:28;22.50;59.60
17887;DHT22;9069;52.044;7.472;2023-07-08T01:28:56;22.50;59.70
17887;DHT22;9069;52.044;7.472;2023-07-08T01:31:23;22.40;59.70
17887;DHT22;9069;52.044;7.472;2023-07-08T01:33:54;22.40;59.90
17887;DHT22;9069;52.044;7.472;2023-07-08T01:36:23;22.30;60.00
17887;DHT22;9069;52.044;7.472;2023-07-08T01:38:52;22.30;59.90
17887;DHT22;9069;52.044;7.472;2023-07-08T01:41:18;22.30;59.90
17887;DHT22;9069;52.044;7.472;2023-07-08T01:43:45;22.20;60.00
17887;DHT22;9069;52.044;7.472;2023-07-08T01:46:24;22.20;60.00
17887;DHT22;9069;52.044;7.472;2023-07-08T01:48:54;22.20;60.70
17887;DHT22;9069;52.044;7.472;2023-07-08T01:51:24;22.20;60.30
17887;DHT22;9069;52.044;7.472;2023-07-08T01:53:52;22.10;60.40
17887;DHT22;9069;52.044;7.472;2023-07-08T01:56:18;22.10;60.40
17887;DHT22;9069;52.044;7.472;2023-07-08T01:58:46;22.10;60.50
17887;DHT22;9069;52.044;7.472;2023-07-08T02:01:13;22.10;60.60
17887;DHT22;9069;52.044;7.472;2023-07-08T02:03:39;22.00;60.60
17887;DHT22;9069;52.044;7.472;2023-07-08T02:06:10;22.00;60.70
17887;DHT22;9069;52.044;7.472;2023-07-08T02:08:37;22.10;60.90
17887;DHT22;9069;52.044;7.472;2023-07-08T02:11:04;22.00;60.90
17887;DHT22;9069;52.044;7.472;2023-07-08T02:13:30;21.90;60.90
17887;DHT22;9069;52.044;7.472;2023-07-08T02:15:57;21.90;61.00
17887;DHT22;9069;52.044;7.472;2023-07-08T02:18:25;21.90;61.00
17887;DHT22;9069;52.044;7.472;2023-07-08T02:20:52;21.80;61.00
17887;DHT22;9069;52.044;7.472;2023-07-08T02:23:19;21.80;61.10
17887;DHT22;9069;52.044;7.472;2023-07-08T02:25:53;21.80;61.20
17887;DHT22;9069;52.044;7.472;2023-07-08T02:28:21;21.80;62.40
17887;DHT22;9069;52.044;7.472;2023-07-08T02:30:48;21.80;61.40
17887;DHT22;9069;52.044;7.472;2023-07-08T02:33:14;21.80;61.40
17887;DHT22;9069;52.044;7.472;2023-07-08T02:35:44;21.70;61.40
17887;DHT22;9069;52.044;7.472;2023-07-08T02:38:12;21.80;61.50
17887;DHT22;9069;52.044;7.472;2023-07-08T02:40:40;21.70;61.50
17887;DHT22;9069;52.044;7.472;2023-07-08T02:43:06;21.70;61.60
17887;DHT22;9069;52.044;7.472;2023-07-08T02:45:33;21.70;61.60
17887;DHT22;9069;52.044;7.472;2023-07-08T02:48:00;21.70;61.70
17887;DHT22;9069;52.044;7.472;2023-07-08T02:50:26;21.70;61.80
17887;DHT22;9069;52.044;7.472;2023-07-08T02:52:53;21.70;61.70
17887;DHT22;9069;52.044;7.472;2023-07-08T02:55:20;21.70;61.80
17887;DHT22;9069;52.044;7.472;2023-07-08T02:57:47;21.60;61.90
17887;DHT22;9069;52.044;7.472;2023-07-08T03:00:14;21.60;61.90
17887;DHT22;9069;52.044;7.472;2023-07-08T03:02:41;21.60;62.00
17887;DHT22;9069;52.044;7.472;2023-07-08T03:05:08;21.60;62.00
17887;DHT22;9069;52.044;7.472;2023-07-08T03:07:35;21.60;62.00
17887;DHT22;9069;52.044;7.472;2023-07-08T03:10:02;21.60;62.10
17887;DHT22;9069;52.044;7.472;2023-07-08T03:12:30;21.60;62.20
17887;DHT22;9069;52.044;7.472;2023-07-08T03:14:57;21.60;62.10
17887;DHT22;9069;52.044;7.472;2023-07-08T03:17:24;21.60;62.90
17887;DHT22;9069;52.044;7.472;2023-07-08T03:19:51;21.60;62.20
17887;DHT22;9069;52.044;7.472;2023-07-08T03:22:18;21.50;62.10
17887;DHT22;9069;52.044;7.472;2023-07-08T03:24:45;21.50;62.20
17887;DHT22;9069;52.044;7.472;2023-07-08T03:27:16;21.50;62.20
17887;DHT22;9069;52.044;7.472;2023-07-08T03:29:44;21.50;62.20
17887;DHT22;9069;52.044;7.472;2023-07-08T03:32:12;21.50;62.20
17887;DHT22;9069;52.044;7.472;2023-07-08T03:34:40;21.50;62.20
17887;DHT22;9069;52.044;7.472;2023-07-08T03:37:09;21.50;62.20
17887;DHT22;9069;52.044;7.472;2023-07-08T03:39:36;21.50;62.40
17887;DHT22;9069;52.044;7.472;2023-07-08T03:42:03;21.50;62.30
17887;DHT22;9069;52.044;7.472;2023-07-08T03:44:30;21.40;62.30
17887;DHT22;9069;52.044;7.472;2023-07-08T03:46:58;21.40;62.30
17887;DHT22;9069;52.044;7.472;2023-07-08T03:49:25;21.40;62.40
17887;DHT22;9069;52.044;7.472;2023-07-08T03:51:54;21.40;62.40
17887;DHT22;9069;52.044;7.472;2023-07-08T03:54:23;21.40;62.50
17887;DHT22;9069;52.044;7.472;2023-07-08T03:56:51;21.40;62.50
17887;DHT22;9069;52.044;7.472;2023-07-08T03:59:20;21.40;62.80
17887;DHT22;9069;52.044;7.472;2023-07-08T04:01:47;21.40;62.50
17887;DHT22;9069;52.044;7.472;2023-07-08T04:04:15;21.40;62.50
17887;DHT22;9069;52.044;7.472;2023-07-08T04:06:43;21.30;62.60
17887;DHT22;9069;52.044;7.472;2023-07-08T04:09:12;21.40;62.70
17887;DHT22;9069;52.044;7.472;2023-07-08T04:11:39;21.30;62.70
17887;DHT22;9069;52.044;7.472;2023-07-08T04:14:06;21.30;62.70
17887;DHT22;9069;52.044;7.472;2023-07-08T04:19:13;21.30;63.00
17887;DHT22;9069;52.044;7.472;2023-07-08T04:21:42;21.30;62.80
17887;DHT22;9069;52.044;7.472;2023-07-08T04:24:14;21.30;62.90
17887;DHT22;9069;52.044;7.472;2023-07-08T04:26:41;21.30;63.10
17887;DHT22;9069;52.044;7.472;2023-07-08T04:29:12;21.30;63.10
17887;DHT22;9069;52.044;7.472;2023-07-08T04:31:40;21.30;63.40
17887;DHT22;9069;52.044;7.472;2023-07-08T04:34:08;21.30;63.30
17887;DHT22;9069;52.044;7.472;2023-07-08T04:36:36;21.30;63.40
17887;DHT22;9069;52.044;7.472;2023-07-08T04:39:04;21.40;63.50
17887;DHT22;9069;52.044;7.472;2023-07-08T04:41:32;21.30;63.60
17887;DHT22;9069;52.044;7.472;2023-07-08T04:43:58;21.40;63.60
17887;DHT22;9069;52.044;7.472;2023-07-08T04:49:04;21.50;64.00
17887;DHT22;9069;52.044;7.472;2023-07-08T04:51:32;21.50;63.90
17887;DHT22;9069;52.044;7.472;2023-07-08T04:53:59;21.60;63.90
17887;DHT22;9069;52.044;7.472;2023-07-08T04:56:35;21.70;63.90
17887;DHT22;9069;52.044;7.472;2023-07-08T04:59:04;21.80;64.00
17887;DHT22;9069;52.044;7.472;2023-07-08T05:01:31;22.00;63.90
17887;DHT22;9069;52.044;7.472;2023-07-08T05:03:58;22.10;64.00
17887;DHT22;9069;52.044;7.472;2023-07-08T05:06:26;22.20;63.80
17887;DHT22;9069;52.044;7.472;2023-07-08T05:08:53;22.40;63.60
17887;DHT22;9069;52.044;7.472;2023-07-08T05:11:20;22.50;63.30
17887;DHT22;9069;52.044;7.472;2023-07-08T05:13:47;22.60;63.00
17887;DHT22;9069;52.044;7.472;2023-07-08T05:16:14;22.70;62.70
17887;DHT22;9069;52.044;7.472;2023-07-08T05:18:40;22.70;62.50
17887;DHT22;9069;52.044;7.472;2023-07-08T05:21:09;22.80;62.40
17887;DHT22;9069;52.044;7.472;2023-07-08T05:23:36;22.80;62.20
17887;DHT22;9069;52.044;7.472;2023-07-08T05:26:04;22.80;62.10
17887;DHT22;9069;52.044;7.472;2023-07-08T05:28:31;22.80;62.20
17887;DHT22;9069;52.044;7.472;2023-07-08T05:30:58;22.90;62.20
17887;DHT22;9069;52.044;7.472;2023-07-08T05:33:28;22.90;62.30
17887;DHT22;9069;52.044;7.472;2023-07-08T05:35:55;23.00;62.60
17887;DHT22;9069;52.044;7.472;2023-07-08T05:38:23;23.00;62.50
17887;DHT22;9069;52.044;7.472;2023-07-08T05:40:51;23.00;62.50
17887;DHT22;9069;52.044;7.472;2023-07-08T05:43:20;23.00;62.70
17887;DHT22;9069;52.044;7.472;2023-07-08T05:45:47;23.10;62.90
17887;DHT22;9069;52.044;7.472;2023-07-08T05:48:34;23.20;63.20
17887;DHT22;9069;52.044;7.472;2023-07-08T05:51:00;23.40;63.30
17887;DHT22;9069;52.044;7.472;2023-07-08T05:53:27;23.60;63.30
17887;DHT22;9069;52.044;7.472;2023-07-08T05:55:54;23.70;63.30
17887;DHT22;9069;52.044;7.472;2023-07-08T05:58:21;23.90;63.20
17887;DHT22;9069;52.044;7.472;2023-07-08T06:00:57;24.00;63.10
17887;DHT22;9069;52.044;7.472;2023-07-08T06:03:25;24.20;63.40
17887;DHT22;9069;52.044;7.472;2023-07-08T06:05:52;24.30;63.10
17887;DHT22;9069;52.044;7.472;2023-07-08T06:08:19;24.40;62.70
17887;DHT22;9069;52.044;7.472;2023-07-08T06:10:46;24.60;62.60
17887;DHT22;9069;52.044;7.472;2023-07-08T06:13:13;24.80;62.30
17887;DHT22;9069;52.044;7.472;2023-07-08T06:15:41;24.90;62.10
17887;DHT22;9069;52.044;7.472;2023-07-08T06:18:08;25.00;62.10
17887;DHT22;9069;52.044;7.472;2023-07-08T06:20:35;25.20;62.20
17887;DHT22;9069;52.044;7.472;2023-07-08T06:23:02;25.30;62.20
17887;DHT22;9069;52.044;7.472;2023-07-08T06:25:29;25.60;62.00
17887;DHT22;9069;52.044;7.472;2023-07-08T06:27:56;25.70;61.60
17887;DHT22;9069;52.044;7.472;2023-07-08T06:30:23;26.00;61.60
17887;DHT22;9069;52.044;7.472;2023-07-08T06:32:50;26.20;61.20
17887;DHT22;9069;52.044;7.472;2023-07-08T06:35:17;26.40;61.00
17887;DHT22;9069;52.044;7.472;2023-07-08T06:37:44;26.60;60.20
17887;DHT22;9069;52.044;7.472;2023-07-08T06:40:11;26.80;60.00
17887;DHT22;9069;52.044;7.472;2023-07-08T06:42:38;27.00;59.30
17887;DHT22;9069;52.044;7.472;2023-07-08T06:45:16;27.20;59.20
17887;DHT22;9069;52.044;7.472;2023-07-08T06:47:42;27.50;59.10
17887;DHT22;9069;52.044;7.472;2023-07-08T06:50:09;27.70;58.90
17887;DHT22;9069;52.044;7.472;2023-07-08T06:52:36;28.00;58.60
17887;DHT22;9069;52.044;7.472;2023-07-08T06:55:07;28.20;57.80
17887;DHT22;9069;52.044;7.472;2023-07-08T06:57:35;28.50;57.50
17887;DHT22;9069;52.044;7.472;2023-07-08T07:00:02;28.80;57.70
17887;DHT22;9069;52.044;7.472;2023-07-08T07:02:29;29.00;57.10
17887;DHT22;9069;52.044;7.472;2023-07-08T07:04:56;29.30;56.50
17887;DHT22;9069;52.044;7.472;2023-07-08T07:07:23;29.60;56.10
17887;DHT22;9069;52.044;7.472;2023-07-08T07:09:50;29.80;56.00
17887;DHT22;9069;52.044;7.472;2023-07-08T07:12:16;30.10;55.80
17887;DHT22;9069;52.044;7.472;2023-07-08T07:14:43;30.40;55.60
17887;DHT22;9069;52.044;7.472;2023-07-08T07:17:13;30.70;55.10
17887;DHT22;9069;52.044;7.472;2023-07-08T07:19:40;30.90;54.50
17887;DHT22;9069;52.044;7.472;2023-07-08T07:22:07;31.10;54.20
17887;DHT22;9069;52.044;7.472;2023-07-08T07:24:33;31.20;53.90
17887;DHT22;9069;52.044;7.472;2023-07-08T07:27:00;31.60;53.50
17887;DHT22;9069;52.044;7.472;2023-07-08T07:29:27;31.70;52.90
17887;DHT22;9069;52.044;7.472;2023-07-08T07:31:53;31.80;52.20
17887;DHT22;9069;52.044;7.472;2023-07-08T07:34:21;31.90;51.90
17887;DHT22;9069;52.044;7.472;2023-07-08T07:36:48;31.90;51.90
17887;DHT22;9069;52.044;7.472;2023-07-08T07:39:15;32.00;52.10
17887;DHT22;9069;52.044;7.472;2023-07-08T07:41:41;32.10;52.20
17887;DHT22;9069;52.044;7.472;2023-07-08T07:44:08;32.20;52.00
17887;DHT22;9069;52.044;7.472;2023-07-08T07:46:35;32.40;52.30
17887;DHT22;9069;52.044;7.472;2023-07-08T07:49:02;32.60;52.10
17887;DHT22;9069;52.044;7.472;2023-07-08T07:51:28;32.70;51.50
17887;DHT22;9069;52.044;7.472;2023-07-08T07:53:55;33.00;51.50
17887;DHT22;9069;52.044;7.472;2023-07-08T07:56:22;33.20;51.30
17887;DHT22;9069;52.044;7.472;2023-07-08T07:58:51;33.40;51.00
17887;DHT22;9069;52.044;7.472;2023-07-08T08:01:18;33.70;50.90
17887;DHT22;9069;52.044;7.472;2023-07-08T08:03:48;34.00;50.90
17887;DHT22;9069;52.044;7.472;2023-07-08T08:06:17;34.20;50.50
17887;DHT22;9069;52.044;7.472;2023-07-08T08:08:45;34.50;49.80
17887;DHT22;9069;52.044;7.472;2023-07-08T08:11:12;34.80;49.40
17887;DHT22;9069;52.044;7.472;2023-07-08T08:13:39;35.10;49.00
17887;DHT22;9069;52.044;7.472;2023-07-08T08:16:05;35.30;48.50
17887;DHT22;9069;52.044;7.472;2023-07-08T08:18:32;35.50;48.10
17887;DHT22;9069;52.044;7.472;2023-07-08T08:20:59;35.80;47.80
17887;DHT22;9069;52.044;7.472;2023-07-08T08:23:26;36.00;47.30
17887;DHT22;9069;52.044;7.472;2023-07-08T08:25:53;36.20;47.00
17887;DHT22;9069;52.044;7.472;2023-07-08T08:28:19;36.40;46.70
17887;DHT22;9069;52.044;7.472;2023-07-08T08:30:47;36.70;46.50
17887;DHT22;9069;52.044;7.472;2023-07-08T08:33:14;36.80;46.50
17887;DHT22;9069;52.044;7.472;2023-07-08T08:35:44;37.10;45.60
17887;DHT22;9069;52.044;7.472;2023-07-08T08:38:11;37.30;45.20
17887;DHT22;9069;52.044;7.472;2023-07-08T08:40:42;37.40;45.40
17887;DHT22;9069;52.044;7.472;2023-07-08T08:43:22;37.70;45.00
17887;DHT22;9069;52.044;7.472;2023-07-08T08:49:26;38.10;43.80
17887;DHT22;9069;52.044;7.472;2023-07-08T08:51:56;38.40;44.00
17887;DHT22;9069;52.044;7.472;2023-07-08T08:54:25;38.50;43.90
17887;DHT22;9069;52.044;7.472;2023-07-08T08:59:54;38.90;43.50
17887;DHT22;9069;52.044;7.472;2023-07-08T09:05:06;39.20;42.60
17887;DHT22;9069;52.044;7.472;2023-07-08T09:10:46;39.40;42.40
17887;DHT22;9069;52.044;7.472;2023-07-08T09:13:24;39.40;41.20
17887;DHT22;9069;52.044;7.472;2023-07-08T09:16:14;39.50;41.50
17887;DHT22;9069;52.044;7.472;2023-07-08T09:19:05;39.50;41.30
17887;DHT22;9069;52.044;7.472;2023-07-08T09:21:59;39.50;41.40
17887;DHT22;9069;52.044;7.472;2023-07-08T09:24:37;39.60;41.10
17887;DHT22;9069;52.044;7.472;2023-07-08T09:27:05;39.60;40.80
17887;DHT22;9069;52.044;7.472;2023-07-08T09:29:32;39.70;40.80
17887;DHT22;9069;52.044;7.472;2023-07-08T09:32:10;39.70;40.60
17887;DHT22;9069;52.044;7.472;2023-07-08T09:34:43;39.70;40.80
17887;DHT22;9069;52.044;7.472;2023-07-08T09:37:25;39.70;40.50
17887;DHT22;9069;52.044;7.472;2023-07-08T09:39:53;39.80;41.40
17887;DHT22;9069;52.044;7.472;2023-07-08T09:42:22;39.80;41.60
17887;DHT22;9069;52.044;7.472;2023-07-08T09:44:55;39.90;41.20
17887;DHT22;9069;52.044;7.472;2023-07-08T09:47:26;40.00;40.50
17887;DHT22;9069;52.044;7.472;2023-07-08T09:49:57;40.10;40.30
17887;DHT22;9069;52.044;7.472;2023-07-08T09:52:24;40.20;40.80
17887;DHT22;9069;52.044;7.472;2023-07-08T09:54:52;40.30;40.80
17887;DHT22;9069;52.044;7.472;2023-07-08T10:00:16;40.60;40.10
17887;DHT22;9069;52.044;7.472;2023-07-08T10:02:51;40.80;39.80
17887;DHT22;9069;52.044;7.472;2023-07-08T10:05:23;40.90;39.70
17887;DHT22;9069;52.044;7.472;2023-07-08T10:07:54;41.10;40.10
17887;DHT22;9069;52.044;7.472;2023-07-08T10:10:36;41.30;40.00
17887;DHT22;9069;52.044;7.472;2023-07-08T10:13:12;41.40;39.30
17887;DHT22;9069;52.044;7.472;2023-07-08T10:15:47;41.70;39.30
17887;DHT22;9069;52.044;7.472;2023-07-08T10:18:17;41.80;39.10
17887;DHT22;9069;52.044;7.472;2023-07-08T10:24:27;42.20;37.50
17887;DHT22;9069;52.044;7.472;2023-07-08T10:30:20;42.40;37.10
17887;DHT22;9069;52.044;7.472;2023-07-08T10:33:20;42.40;37.40
17887;DHT22;9069;52.044;7.472;2023-07-08T10:38:52;42.40;37.20
17887;DHT22;9069;52.044;7.472;2023-07-08T10:44:17;42.20;37.30
17887;DHT22;9069;52.044;7.472;2023-07-08T10:48:16;42.10;37.80
17887;DHT22;9069;52.044;7.472;2023-07-08T11:08:07;41.00;37.70
17887;DHT22;9069;52.044;7.472;2023-07-08T11:14:01;40.60;38.20
17887;DHT22;9069;52.044;7.472;2023-07-08T11:19:29;40.20;39.00
17887;DHT22;9069;52.044;7.472;2023-07-08T11:22:00;40.10;38.90
17887;DHT22;9069;52.044;7.472;2023-07-08T11:24:46;39.90;38.80
17887;DHT22;9069;52.044;7.472;2023-07-08T11:27:42;39.80;38.70
17887;DHT22;9069;52.044;7.472;2023-07-08T11:32:39;39.50;38.20
17887;DHT22;9069;52.044;7.472;2023-07-08T11:35:20;39.30;38.60
17887;DHT22;9069;52.044;7.472;2023-07-08T11:37:48;39.30;39.10
17887;DHT22;9069;52.044;7.472;2023-07-08T11:40:22;39.10;39.00
17887;DHT22;9069;52.044;7.472;2023-07-08T11:42:51;39.00;38.90
17887;DHT22;9069;52.044;7.472;2023-07-08T11:45:30;38.90;39.80
17887;DHT22;9069;52.044;7.472;2023-07-08T11:48:17;38.80;39.10
17887;DHT22;9069;52.044;7.472;2023-07-08T11:50:47;38.70;38.60
17887;DHT22;9069;52.044;7.472;2023-07-08T11:55:57;38.40;38.70
17887;DHT22;9069;52.044;7.472;2023-07-08T11:58:27;38.30;38.90
17887;DHT22;9069;52.044;7.472;2023-07-08T12:01:23;38.30;39.20
17887;DHT22;9069;52.044;7.472;2023-07-08T12:04:51;38.10;39.30
17887;DHT22;9069;52.044;7.472;2023-07-08T12:07:10;37.90;39.40
17887;DHT22;9069;52.044;7.472;2023-07-08T12:12:40;37.70;38.70
17887;DHT22;9069;52.044;7.472;2023-07-08T12:15:26;37.60;39.50
17887;DHT22;9069;52.044;7.472;2023-07-08T12:18:09;37.50;39.40
17887;DHT22;9069;52.044;7.472;2023-07-08T12:20:40;37.50;39.60
17887;DHT22;9069;52.044;7.472;2023-07-08T12:23:17;37.50;39.40
17887;DHT22;9069;52.044;7.472;2023-07-08T12:25:44;37.40;39.60
17887;DHT22;9069;52.044;7.472;2023-07-08T12:28:11;37.40;39.90
17887;DHT22;9069;52.044;7.472;2023-07-08T12:30:39;37.30;39.70
17887;DHT22;9069;52.044;7.472;2023-07-08T12:33:14;37.30;40.20
17887;DHT22;9069;52.044;7.472;2023-07-08T12:35:43;37.20;39.70
17887;DHT22;9069;52.044;7.472;2023-07-08T12:38:19;37.20;39.90
17887;DHT22;9069;52.044;7.472;2023-07-08T12:40:48;37.20;39.60
17887;DHT22;9069;52.044;7.472;2023-07-08T12:43:15;37.10;39.70
17887;DHT22;9069;52.044;7.472;2023-07-08T12:45:43;37.00;39.80
17887;DHT22;9069;52.044;7.472;2023-07-08T12:48:10;37.00;39.80
17887;DHT22;9069;52.044;7.472;2023-07-08T12:50:38;36.90;40.00
17887;DHT22;9069;52.044;7.472;2023-07-08T12:53:05;37.00;39.90
17887;DHT22;9069;52.044;7.472;2023-07-08T12:55:41;36.80;40.00
17887;DHT22;9069;52.044;7.472;2023-07-08T12:58:23;36.80;40.00
17887;DHT22;9069;52.044;7.472;2023-07-08T13:00:52;36.70;40.40
17887;DHT22;9069;52.044;7.472;2023-07-08T13:03:22;36.70;40.50
17887;DHT22;9069;52.044;7.472;2023-07-08T13:05:52;36.60;39.90
17887;DHT22;9069;52.044;7.472;2023-07-08T13:08:22;36.60;39.70
17887;DHT22;9069;52.044;7.472;2023-07-08T13:10:57;36.50;40.00
17887;DHT22;9069;52.044;7.472;2023-07-08T13:13:29;36.50;39.30
17887;DHT22;9069;52.044;7.472;2023-07-08T13:15:57;36.40;39.90
17887;DHT22;9069;52.044;7.472;2023-07-08T13:20:57;36.40;40.00
17887;DHT22;9069;52.044;7.472;2023-07-08T13:23:26;36.40;40.00
17887;DHT22;9069;52.044;7.472;2023-07-08T13:25:54;36.30;40.20
17887;DHT22;9069;52.044;7.472;2023-07-08T13:31:01;36.30;40.10
17887;DHT22;9069;52.044;7.472;2023-07-08T13:33:34;36.30;40.00
17887;DHT22;9069;52.044;7.472;2023-07-08T13:36:03;36.30;40.00
17887;DHT22;9069;52.044;7.472;2023-07-08T13:38:35;36.30;40.50
17887;DHT22;9069;52.044;7.472;2023-07-08T13:41:04;36.20;40.30
17887;DHT22;9069;52.044;7.472;2023-07-08T13:43:37;36.20;40.40
17887;DHT22;9069;52.044;7.472;2023-07-08T13:46:04;36.20;40.30
17887;DHT22;9069;52.044;7.472;2023-07-08T13:48:38;36.20;40.00
17887;DHT22;9069;52.044;7.472;2023-07-08T13:51:14;36.20;40.10
17887;DHT22;9069;52.044;7.472;2023-07-08T13:53:53;36.20;40.60
17887;DHT22;9069;52.044;7.472;2023-07-08T13:56:31;36.20;39.60
17887;DHT22;9069;52.044;7.472;2023-07-08T13:59:03;36.20;40.70
17887;DHT22;9069;52.044;7.472;2023-07-08T14:01:32;36.20;40.50
17887;DHT22;9069;52.044;7.472;2023-07-08T14:04:00;36.20;40.80
17887;DHT22;9069;52.044;7.472;2023-07-08T14:06:33;36.20;40.70
17887;DHT22;9069;52.044;7.472;2023-07-08T14:09:17;36.20;40.40
17887;DHT22;9069;52.044;7.472;2023-07-08T14:11:45;36.30;39.90
17887;DHT22;9069;52.044;7.472;2023-07-08T14:14:12;36.20;40.30
17887;DHT22;9069;52.044;7.472;2023-07-08T14:16:41;36.30;40.30
17887;DHT22;9069;52.044;7.472;2023-07-08T14:19:16;36.30;40.20
17887;DHT22;9069;52.044;7.472;2023-07-08T14:21:43;36.20;40.60
17887;DHT22;9069;52.044;7.472;2023-07-08T14:24:14;36.20;40.30
17887;DHT22;9069;52.044;7.472;2023-07-08T14:26:42;36.20;40.10
17887;DHT22;9069;52.044;7.472;2023-07-08T14:29:10;36.20;40.00
17887;DHT22;9069;52.044;7.472;2023-07-08T14:31:38;36.20;40.10
17887;DHT22;9069;52.044;7.472;2023-07-08T14:34:12;36.30;39.70
17887;DHT22;9069;52.044;7.472;2023-07-08T14:36:39;36.20;40.10
17887;DHT22;9069;52.044;7.472;2023-07-08T14:39:11;36.20;40.00
17887;DHT22;9069;52.044;7.472;2023-07-08T14:41:39;36.20;40.30
17887;DHT22;9069;52.044;7.472;2023-07-08T14:44:24;36.10;40.00
17887;DHT22;9069;52.044;7.472;2023-07-08T14:46:52;36.10;39.50
17887;DHT22;9069;52.044;7.472;2023-07-08T14:49:21;36.10;40.10
17887;DHT22;9069;52.044;7.472;2023-07-08T14:51:49;36.20;39.80
17887;DHT22;9069;52.044;7.472;2023-07-08T14:54:18;36.10;39.80
17887;DHT22;9069;52.044;7.472;2023-07-08T14:56:45;36.10;40.00
17887;DHT22;9069;52.044;7.472;2023-07-08T14:59:18;36.10;39.80
17887;DHT22;9069;52.044;7.472;2023-07-08T15:01:46;36.10;39.60
17887;DHT22;9069;52.044;7.472;2023-07-08T15:04:16;36.10;40.00
17887;DHT22;9069;52.044;7.472;2023-07-08T15:06:44;36.10;39.90
17887;DHT22;9069;52.044;7.472;2023-07-08T15:09:11;36.10;39.50
17887;DHT22;9069;52.044;7.472;2023-07-08T15:11:40;36.10;39.60
17887;DHT22;9069;52.044;7.472;2023-07-08T15:14:33;36.00;39.60
17887;DHT22;9069;52.044;7.472;2023-07-08T15:17:00;36.20;39.50
17887;DHT22;9069;52.044;7.472;2023-07-08T15:19:27;36.00;39.70
17887;DHT22;9069;52.044;7.472;2023-07-08T15:21:55;36.00;39.80
17887;DHT22;9069;52.044;7.472;2023-07-08T15:24:21;36.00;40.20
17887;DHT22;9069;52.044;7.472;2023-07-08T15:26:51;36.00;39.70
17887;DHT22;9069;52.044;7.472;2023-07-08T15:29:22;36.00;39.60
17887;DHT22;9069;52.044;7.472;2023-07-08T15:31:50;36.00;39.90
17887;DHT22;9069;52.044;7.472;2023-07-08T15:34:19;36.00;40.00
17887;DHT22;9069;52.044;7.472;2023-07-08T15:36:47;36.00;39.80
17887;DHT22;9069;52.044;7.472;2023-07-08T15:39:14;36.00;39.50
17887;DHT22;9069;52.044;7.472;2023-07-08T15:41:41;35.90;39.60
17887;DHT22;9069;52.044;7.472;2023-07-08T15:44:13;35.90;39.60
17887;DHT22;9069;52.044;7.472;2023-07-08T15:46:42;35.90;39.50
17887;DHT22;9069;52.044;7.472;2023-07-08T15:51:42;35.80;39.80
17887;DHT22;9069;52.044;7.472;2023-07-08T15:54:12;35.80;39.50
17887;DHT22;9069;52.044;7.472;2023-07-08T15:56:39;35.90;39.90
17887;DHT22;9069;52.044;7.472;2023-07-08T15:59:14;35.80;39.30
17887;DHT22;9069;52.044;7.472;2023-07-08T16:01:42;35.80;39.40
17887;DHT22;9069;52.044;7.472;2023-07-08T16:04:33;35.70;39.50
17887;DHT22;9069;52.044;7.472;2023-07-08T16:07:00;35.80;39.70
17887;DHT22;9069;52.044;7.472;2023-07-08T16:09:27;35.80;39.90
17887;DHT22;9069;52.044;7.472;2023-07-08T16:11:54;35.90;39.70
17887;DHT22;9069;52.044;7.472;2023-07-08T16:14:20;35.70;40.10
17887;DHT22;9069;52.044;7.472;2023-07-08T16:16:51;35.70;39.70
17887;DHT22;9069;52.044;7.472;2023-07-08T16:19:17;35.70;39.60
17887;DHT22;9069;52.044;7.472;2023-07-08T16:21:44;35.70;39.90
17887;DHT22;9069;52.044;7.472;2023-07-08T16:24:12;35.70;39.80
17887;DHT22;9069;52.044;7.472;2023-07-08T16:26:39;35.60;39.80
17887;DHT22;9069;52.044;7.472;2023-07-08T16:29:10;35.70;39.80
17887;DHT22;9069;52.044;7.472;2023-07-08T16:31:39;35.60;39.90
17887;DHT22;9069;52.044;7.472;2023-07-08T16:34:08;35.70;40.00
17887;DHT22;9069;52.044;7.472;2023-07-08T16:36:36;35.60;40.00
17887;DHT22;9069;52.044;7.472;2023-07-08T16:39:03;35.60;40.10
17887;DHT22;9069;52.044;7.472;2023-07-08T16:41:33;35.50;40.20
17887;DHT22;9069;52.044;7.472;2023-07-08T16:44:28;35.50;40.20
17887;DHT22;9069;52.044;7.472;2023-07-08T16:46:55;35.50;40.20
17887;DHT22;9069;52.044;7.472;2023-07-08T16:49:23;35.40;40.50
17887;DHT22;9069;52.044;7.472;2023-07-08T16:51:50;35.40;40.50
17887;DHT22;9069;52.044;7.472;2023-07-08T16:54:18;35.40;40.60
17887;DHT22;9069;52.044;7.472;2023-07-08T16:56:45;35.40;41.00
17887;DHT22;9069;52.044;7.472;2023-07-08T16:59:14;35.40;41.30
17887;DHT22;9069;52.044;7.472;2023-07-08T17:01:42;35.30;41.00
17887;DHT22;9069;52.044;7.472;2023-07-08T17:04:13;35.30;41.00
17887;DHT22;9069;52.044;7.472;2023-07-08T17:06:41;35.30;40.70
17887;DHT22;9069;52.044;7.472;2023-07-08T17:09:11;35.30;40.90
17887;DHT22;9069;52.044;7.472;2023-07-08T17:11:39;35.20;40.80
17887;DHT22;9069;52.044;7.472;2023-07-08T17:14:06;35.20;40.90
17887;DHT22;9069;52.044;7.472;2023-07-08T17:16:36;35.10;40.90
17887;DHT22;9069;52.044;7.472;2023-07-08T17:19:03;35.10;41.10